Time;durP1;ratioP1;P1;durP2;ratioP2;P2;SDS_P1;SDS_P2;PMS_P1;PMS_P2;Temp;Humidity;BMP_temperature;BMP_pressure;BME280_temperature;BME280_humidity;BME280_pressure;Samples;Min_cycle;Max_cycle;Signal;HPM_P1;HPM_P2
2023/05/17 00:01:42;;;;;;;11.60;3.97;;;;;;;;;;5028184;28;20651;-61
2023/05/17 00:04:09;;;;;;;11.40;3.63;;;;;;;;;;5045118;28;20218;-60
2023/05/17 00:06:36;;;;;;;5.93;3.53;;;;;;;;;;5025038;28;20215;-61
2023/05/17 00:09:02;;;;;;;7.57;3.90;;;;;;;;;;5029788;28;20195;-60
2023/05/17 00:11:29;;;;;;;12.40;4.03;;;;;;;;;;5029811;28;20194;-60
2023/05/17 00:13:56;;;;;;;7.73;3.40;;;;;;;;;;5030290;28;20199;-60
2023/05/17 00:16:23;;;;;;;7.83;3.57;;;;;;;;;;5030425;28;20190;-62
2023/05/17 00:18:51;;;;;;;9.77;3.50;;;;;;;;;;5015515;28;20694;-61
2023/05/17 00:21:18;;;;;;;9.57;4.23;;;;;;;;;;5029737;28;20211;-60
2023/05/17 00:23:44;;;;;;;13.83;4.53;;;;;;;;;;5029455;28;20249;-60
2023/05/17 00:26:12;;;;;;;13.40;3.90;;;;;;;;;;5026370;28;20257;-60
2023/05/17 00:28:39;;;;;;;9.93;3.50;;;;;;;;;;5028510;28;20233;-60
2023/05/17 00:31:06;;;;;;;9.43;3.47;;;;;;;;;;5029426;28;20298;-60
2023/05/17 00:33:33;;;;;;;10.50;3.77;;;;;;;;;;4993620;28;20283;-64
2023/05/17 00:36:00;;;;;;;9.90;3.83;;;;;;;;;;4994437;28;20227;-60
2023/05/17 00:38:27;;;;;;;7.20;4.00;;;;;;;;;;5020023;28;20223;-61
2023/05/17 00:40:54;;;;;;;9.37;3.80;;;;;;;;;;5028943;28;20278;-60
2023/05/17 00:43:20;;;;;;;7.40;3.63;;;;;;;;;;5013232;28;20195;-60
2023/05/17 00:45:49;;;;;;;10.97;3.60;;;;;;;;;;5028584;28;20218;-60
2023/05/17 00:48:16;;;;;;;8.90;3.87;;;;;;;;;;5022774;28;20206;-60
2023/05/17 00:50:43;;;;;;;11.03;4.50;;;;;;;;;;5022014;28;20287;-60
2023/05/17 00:53:14;;;;;;;13.93;4.63;;;;;;;;;;5025491;28;20547;-60
2023/05/17 00:55:43;;;;;;;9.07;4.37;;;;;;;;;;5025234;28;20278;-60
2023/05/17 00:58:13;;;;;;;13.70;4.43;;;;;;;;;;5027929;28;20235;-60
2023/05/17 01:00:39;;;;;;;10.30;4.47;;;;;;;;;;5012733;28;20191;-61
2023/05/17 01:03:06;;;;;;;7.73;4.13;;;;;;;;;;5011260;28;20303;-61
2023/05/17 01:05:33;;;;;;;13.43;4.50;;;;;;;;;;5029075;28;20195;-62
2023/05/17 01:08:01;;;;;;;12.10;4.47;;;;;;;;;;5021689;28;20314;-61
2023/05/17 01:10:42;;;;;;;14.27;4.60;;;;;;;;;;5012175;28;20259;-61
2023/05/17 01:13:19;;;;;;;10.53;4.37;;;;;;;;;;5004188;28;20228;-61
2023/05/17 01:15:46;;;;;;;9.97;4.43;;;;;;;;;;5016606;28;20206;-61
2023/05/17 01:18:19;;;;;;;14.77;4.60;;;;;;;;;;5024857;28;20215;-61
2023/05/17 01:20:46;;;;;;;12.83;4.17;;;;;;;;;;5008020;28;20230;-61
2023/05/17 01:23:12;;;;;;;11.77;4.40;;;;;;;;;;5009813;28;20271;-61
2023/05/17 01:25:41;;;;;;;11.73;4.23;;;;;;;;;;5010773;28;20649;-61
2023/05/17 01:28:07;;;;;;;8.10;4.00;;;;;;;;;;5011432;28;20184;-61
2023/05/17 01:30:34;;;;;;;9.23;4.33;;;;;;;;;;5028081;28;20196;-60
2023/05/17 01:33:01;;;;;;;12.73;4.60;;;;;;;;;;5012237;28;20931;-61
2023/05/17 01:35:28;;;;;;;12.00;4.27;;;;;;;;;;5028541;28;20202;-61
2023/05/17 01:37:55;;;;;;;11.43;4.83;;;;;;;;;;5026959;28;20631;-61
2023/05/17 01:40:22;;;;;;;10.07;4.20;;;;;;;;;;5011049;28;20210;-61
2023/05/17 01:42:53;;;;;;;16.73;4.87;;;;;;;;;;5039465;28;20234;-61
2023/05/17 02:17:31;;;;;;;10.10;3.83;;;;;;;;;;5028534;28;20173;-60
2023/05/17 02:19:58;;;;;;;11.43;4.00;;;;;;;;;;5029270;28;20197;-60
2023/05/17 02:22:26;;;;;;;13.43;3.60;;;;;;;;;;5019268;28;20202;-61
2023/05/17 02:24:53;;;;;;;7.70;3.00;;;;;;;;;;5026195;28;20314;-60
2023/05/17 02:27:21;;;;;;;12.10;3.50;;;;;;;;;;5029163;28;20603;-61
2023/05/17 02:29:47;;;;;;;10.23;3.33;;;;;;;;;;5028871;28;20570;-61
2023/05/17 02:32:14;;;;;;;9.40;2.90;;;;;;;;;;5028991;28;20195;-61
2023/05/17 02:34:44;;;;;;;9.17;3.00;;;;;;;;;;5011027;28;20207;-60
2023/05/17 02:37:11;;;;;;;9.67;3.07;;;;;;;;;;5011562;28;20204;-60
2023/05/17 02:39:37;;;;;;;8.87;2.70;;;;;;;;;;5026551;28;20246;-61
2023/05/17 02:42:05;;;;;;;4.70;2.13;;;;;;;;;;5022172;28;20563;-60
2023/05/17 02:44:32;;;;;;;9.43;2.53;;;;;;;;;;5008993;28;20287;-61
2023/05/17 02:46:58;;;;;;;6.80;2.40;;;;;;;;;;5027142;28;20200;-60
2023/05/17 02:49:26;;;;;;;7.00;2.47;;;;;;;;;;5028150;28;20190;-61
2023/05/17 02:51:53;;;;;;;8.93;2.80;;;;;;;;;;5028170;28;20187;-60
2023/05/17 02:54:20;;;;;;;11.43;2.90;;;;;;;;;;5028145;28;20286;-61
2023/05/17 02:56:47;;;;;;;13.53;3.60;;;;;;;;;;5009272;28;20662;-61
2023/05/17 02:59:14;;;;;;;5.20;2.50;;;;;;;;;;5010904;28;20216;-60
2023/05/17 03:01:41;;;;;;;8.20;2.87;;;;;;;;;;5009377;28;20191;-61
2023/05/17 03:04:08;;;;;;;6.90;2.80;;;;;;;;;;5011169;28;20195;-60
2023/05/17 03:06:36;;;;;;;4.67;2.30;;;;;;;;;;5010407;28;20200;-60
2023/05/17 03:09:03;;;;;;;9.83;2.30;;;;;;;;;;5027238;28;20242;-60
2023/05/17 03:11:30;;;;;;;9.87;2.73;;;;;;;;;;5027780;28;20199;-60
2023/05/17 03:13:57;;;;;;;5.00;2.27;;;;;;;;;;5010913;28;20203;-60
2023/05/17 03:16:26;;;;;;;17.70;3.27;;;;;;;;;;5013058;28;20203;-61
2023/05/17 03:18:53;;;;;;;4.90;2.43;;;;;;;;;;5031048;28;20551;-61
2023/05/17 03:21:20;;;;;;;8.70;2.73;;;;;;;;;;5014142;28;20187;-61
2023/05/17 03:23:48;;;;;;;12.17;2.87;;;;;;;;;;5013889;28;20202;-60
2023/05/17 03:26:15;;;;;;;9.17;2.87;;;;;;;;;;5014221;28;20650;-61
2023/05/17 03:28:47;;;;;;;5.20;2.30;;;;;;;;;;5014080;28;20199;-61
2023/05/17 03:31:16;;;;;;;10.17;2.50;;;;;;;;;;5031060;28;20222;-60
2023/05/17 03:33:43;;;;;;;8.13;2.30;;;;;;;;;;5009952;28;20199;-60
2023/05/17 03:36:12;;;;;;;4.87;2.30;;;;;;;;;;4994614;28;20541;-60
2023/05/17 03:38:39;;;;;;;8.10;2.63;;;;;;;;;;5015475;28;20211;-60
2023/05/17 03:41:05;;;;;;;7.87;2.50;;;;;;;;;;5019054;28;20202;-61
2023/05/17 03:43:32;;;;;;;4.63;1.93;;;;;;;;;;5013559;28;20257;-60
2023/05/17 03:46:00;;;;;;;9.93;2.53;;;;;;;;;;5046246;28;20690;-60
2023/05/17 03:48:28;;;;;;;8.27;2.20;;;;;;;;;;5030441;28;20195;-60
2023/05/17 03:50:56;;;;;;;6.10;2.27;;;;;;;;;;5027690;28;20206;-60
2023/05/17 03:53:22;;;;;;;12.80;3.07;;;;;;;;;;4997009;28;20291;-60
2023/05/17 03:55:49;;;;;;;6.70;2.50;;;;;;;;;;5011543;28;20196;-61
2023/05/17 03:58:16;;;;;;;9.80;2.60;;;;;;;;;;5011817;28;20261;-60
2023/05/17 04:00:43;;;;;;;6.77;2.20;;;;;;;;;;5012637;28;20242;-61
2023/05/17 04:03:14;;;;;;;9.97;2.37;;;;;;;;;;5013428;28;20294;-61
2023/05/17 04:05:45;;;;;;;5.43;1.80;;;;;;;;;;5044561;28;20201;-60
2023/05/17 04:08:12;;;;;;;12.90;2.40;;;;;;;;;;5012282;28;20818;-60
2023/05/17 04:10:40;;;;;;;9.37;2.77;;;;;;;;;;5012571;28;20203;-60
2023/05/17 04:13:08;;;;;;;9.67;2.47;;;;;;;;;;5031379;28;20183;-60
2023/05/17 04:15:37;;;;;;;10.03;2.67;;;;;;;;;;5045457;28;20245;-61
2023/05/17 04:18:05;;;;;;;7.77;2.47;;;;;;;;;;5043636;28;20211;-60
2023/05/17 04:20:32;;;;;;;8.57;2.40;;;;;;;;;;5028694;28;20191;-60
2023/05/17 04:23:00;;;;;;;4.57;1.97;;;;;;;;;;5017734;28;20187;-60
2023/05/17 04:25:30;;;;;;;6.80;2.40;;;;;;;;;;5022963;28;20277;-60
2023/05/17 04:27:56;;;;;;;6.80;2.30;;;;;;;;;;5046242;28;20278;-60
2023/05/17 04:30:23;;;;;;;6.73;2.40;;;;;;;;;;5010183;28;20200;-60
2023/05/17 04:32:50;;;;;;;7.07;2.77;;;;;;;;;;5011374;28;20195;-60
2023/05/17 04:35:17;;;;;;;12.70;2.83;;;;;;;;;;5043832;28;20659;-60
2023/05/17 04:37:47;;;;;;;3.53;1.80;;;;;;;;;;5012614;28;20207;-61
2023/05/17 04:40:20;;;;;;;7.60;2.57;;;;;;;;;;5043315;28;20234;-60
2023/05/17 04:42:47;;;;;;;7.93;2.90;;;;;;;;;;5044571;28;20322;-60
2023/05/17 04:45:16;;;;;;;8.20;1.83;;;;;;;;;;5011268;28;20218;-60
2023/05/17 04:47:43;;;;;;;11.87;2.77;;;;;;;;;;5006742;28;20223;-60
2023/05/17 04:50:13;;;;;;;9.03;2.50;;;;;;;;;;5014456;28;20287;-60
2023/05/17 04:52:40;;;;;;;8.33;2.77;;;;;;;;;;5012647;28;20204;-60
2023/05/17 04:55:08;;;;;;;10.33;3.07;;;;;;;;;;5011293;28;20198;-60
2023/05/17 04:57:36;;;;;;;6.63;3.10;;;;;;;;;;5013646;28;20200;-60
2023/05/17 05:00:09;;;;;;;8.67;2.90;;;;;;;;;;4994853;28;20220;-60
2023/05/17 05:02:39;;;;;;;9.90;3.27;;;;;;;;;;5011334;28;20562;-60
2023/05/17 05:05:10;;;;;;;9.27;3.10;;;;;;;;;;5018592;28;20666;-60
2023/05/17 05:07:38;;;;;;;13.23;3.03;;;;;;;;;;5011385;28;20231;-60
2023/05/17 05:10:07;;;;;;;11.63;3.50;;;;;;;;;;5011880;28;20210;-61
2023/05/17 05:12:36;;;;;;;9.23;3.17;;;;;;;;;;5015533;28;20203;-60
2023/05/17 05:15:05;;;;;;;10.67;3.00;;;;;;;;;;5022319;28;20194;-60
2023/05/17 05:17:33;;;;;;;11.07;3.10;;;;;;;;;;5010719;28;20258;-60
2023/05/17 05:20:02;;;;;;;10.67;3.30;;;;;;;;;;5011000;28;20223;-60
2023/05/17 05:22:30;;;;;;;12.33;3.80;;;;;;;;;;5028143;28;20592;-60
2023/05/17 05:24:57;;;;;;;9.07;3.43;;;;;;;;;;5010876;28;20265;-60
2023/05/17 05:27:23;;;;;;;11.20;3.10;;;;;;;;;;5010448;28;20276;-60
2023/05/17 05:29:51;;;;;;;12.33;3.80;;;;;;;;;;5009700;28;20226;-60
2023/05/17 05:32:18;;;;;;;11.77;3.47;;;;;;;;;;5010285;28;20628;-61
2023/05/17 05:34:45;;;;;;;8.67;3.60;;;;;;;;;;5000724;28;20204;-61
2023/05/17 05:37:12;;;;;;;10.73;3.40;;;;;;;;;;5021970;28;20198;-60
2023/05/17 05:39:39;;;;;;;12.03;3.33;;;;;;;;;;5010989;28;20277;-60
2023/05/17 05:42:06;;;;;;;11.17;3.27;;;;;;;;;;5010324;28;20202;-60
2023/05/17 05:44:36;;;;;;;8.33;3.07;;;;;;;;;;5006607;28;20227;-60
2023/05/17 05:47:03;;;;;;;8.70;2.97;;;;;;;;;;5006063;28;20202;-61
2023/05/17 05:49:30;;;;;;;9.40;3.23;;;;;;;;;;5011288;28;20195;-61
2023/05/17 05:51:56;;;;;;;9.13;3.43;;;;;;;;;;5028135;28;20589;-60
2023/05/17 05:54:27;;;;;;;11.07;2.63;;;;;;;;;;5008041;28;20202;-60
2023/05/17 05:56:54;;;;;;;8.67;3.10;;;;;;;;;;5015611;28;20260;-61
2023/05/17 05:59:22;;;;;;;10.97;3.03;;;;;;;;;;5026096;28;20297;-60
2023/05/17 06:01:49;;;;;;;7.90;3.07;;;;;;;;;;5009996;28;20234;-60
2023/05/17 06:04:18;;;;;;;10.60;3.00;;;;;;;;;;5029823;28;20206;-60
2023/05/17 06:06:56;;;;;;;9.60;3.10;;;;;;;;;;5029088;28;20194;-61
2023/05/17 06:09:22;;;;;;;7.60;2.60;;;;;;;;;;5029033;28;20188;-60
2023/05/17 06:11:51;;;;;;;9.93;2.77;;;;;;;;;;5029016;28;20527;-60
2023/05/17 06:14:17;;;;;;;11.03;3.07;;;;;;;;;;5029095;28;20190;-60
2023/05/17 06:16:44;;;;;;;11.23;2.87;;;;;;;;;;5028880;28;20402;-60
2023/05/17 06:19:11;;;;;;;8.67;2.33;;;;;;;;;;5029291;28;20192;-60
2023/05/17 06:21:37;;;;;;;10.20;2.37;;;;;;;;;;5029146;28;20605;-60
2023/05/17 06:24:04;;;;;;;9.23;2.20;;;;;;;;;;5028685;28;20198;-61
2023/05/17 06:26:31;;;;;;;7.00;1.90;;;;;;;;;;5028752;28;20191;-60
2023/05/17 06:28:58;;;;;;;7.40;2.30;;;;;;;;;;5029114;28;20214;-60
2023/05/17 06:31:24;;;;;;;10.77;2.83;;;;;;;;;;5011388;28;20286;-60
2023/05/17 06:33:51;;;;;;;5.93;1.97;;;;;;;;;;5029062;28;20180;-60
2023/05/17 06:36:18;;;;;;;8.70;2.50;;;;;;;;;;5028780;28;20191;-60
2023/05/17 06:38:45;;;;;;;8.73;2.20;;;;;;;;;;5028505;28;20192;-60
2023/05/17 06:41:11;;;;;;;11.80;3.00;;;;;;;;;;5028947;28;20669;-60
2023/05/17 06:43:38;;;;;;;8.57;2.13;;;;;;;;;;5011697;28;20183;-60
2023/05/17 06:46:05;;;;;;;5.00;1.77;;;;;;;;;;5028967;28;20253;-60
2023/05/17 06:48:31;;;;;;;7.20;2.47;;;;;;;;;;5029276;28;20191;-60
2023/05/17 06:50:59;;;;;;;5.43;2.40;;;;;;;;;;5032463;28;20204;-61
2023/05/17 06:53:28;;;;;;;10.53;2.60;;;;;;;;;;5032262;28;20214;-60
2023/05/17 06:55:55;;;;;;;6.40;2.33;;;;;;;;;;5032656;28;20188;-60
2023/05/17 06:58:22;;;;;;;11.33;2.07;;;;;;;;;;5032614;28;20194;-60
2023/05/17 07:00:49;;;;;;;11.30;2.53;;;;;;;;;;5032324;28;20223;-60
2023/05/17 07:03:15;;;;;;;8.93;2.50;;;;;;;;;;5032117;28;20202;-60
2023/05/17 07:05:42;;;;;;;7.60;2.17;;;;;;;;;;5032513;28;20271;-60
2023/05/17 07:08:09;;;;;;;8.70;2.10;;;;;;;;;;5032014;28;20195;-60
2023/05/17 07:10:36;;;;;;;8.80;2.17;;;;;;;;;;5032699;28;20278;-60
2023/05/17 07:13:02;;;;;;;6.77;2.30;;;;;;;;;;5032517;28;20186;-59
2023/05/17 07:15:29;;;;;;;8.13;2.30;;;;;;;;;;5028883;28;20612;-59
2023/05/17 07:17:58;;;;;;;10.27;2.40;;;;;;;;;;5012098;28;20263;-61
2023/05/17 07:20:25;;;;;;;7.80;2.37;;;;;;;;;;5012218;28;20235;-60
2023/05/17 07:22:51;;;;;;;12.33;2.87;;;;;;;;;;5012413;28;20219;-60
2023/05/17 07:25:20;;;;;;;7.57;2.70;;;;;;;;;;5012339;28;20221;-60
2023/05/17 07:27:46;;;;;;;13.53;2.80;;;;;;;;;;5012002;28;20200;-60
2023/05/17 07:30:13;;;;;;;10.50;2.67;;;;;;;;;;5011668;28;20204;-59
2023/05/17 07:32:40;;;;;;;8.07;2.37;;;;;;;;;;4994436;28;20286;-59
2023/05/17 07:35:06;;;;;;;8.93;2.77;;;;;;;;;;5025624;28;20212;-59
2023/05/17 07:37:33;;;;;;;17.97;4.37;;;;;;;;;;5031863;28;20196;-59
2023/05/17 07:40:00;;;;;;;12.77;3.90;;;;;;;;;;5014229;28;20247;-59
2023/05/17 07:42:26;;;;;;;10.80;2.73;;;;;;;;;;5031409;28;20188;-60
2023/05/17 07:44:53;;;;;;;9.57;3.07;;;;;;;;;;5031943;28;20188;-60
2023/05/17 07:47:20;;;;;;;11.57;2.60;;;;;;;;;;5031656;28;20674;-61
2023/05/17 07:49:46;;;;;;;10.43;3.10;;;;;;;;;;5031393;28;20962;-59
2023/05/17 07:52:13;;;;;;;14.60;2.83;;;;;;;;;;5031685;28;20555;-60
2023/05/17 07:54:40;;;;;;;7.83;2.77;;;;;;;;;;5031341;28;20618;-59
2023/05/17 07:57:06;;;;;;;10.27;2.97;;;;;;;;;;5031016;28;20350;-59
2023/05/17 07:59:33;;;;;;;14.13;2.83;;;;;;;;;;5013480;28;20214;-60
2023/05/17 08:02:00;;;;;;;11.17;3.27;;;;;;;;;;5031211;28;20210;-60
2023/05/17 08:04:26;;;;;;;11.00;3.13;;;;;;;;;;5031454;28;20350;-60
2023/05/17 08:06:54;;;;;;;9.03;2.63;;;;;;;;;;5031215;28;20607;-60
2023/05/17 08:09:21;;;;;;;7.87;2.30;;;;;;;;;;5031349;28;20199;-60
2023/05/17 08:11:48;;;;;;;7.97;2.57;;;;;;;;;;5030827;28;20194;-60
2023/05/17 08:14:14;;;;;;;8.70;3.33;;;;;;;;;;5031135;28;20222;-60
2023/05/17 08:16:44;;;;;;;11.87;2.80;;;;;;;;;;5013637;28;20198;-60
2023/05/17 08:19:12;;;;;;;8.43;2.43;;;;;;;;;;5013670;28;20195;-60
2023/05/17 08:21:39;;;;;;;10.03;3.13;;;;;;;;;;5031028;28;20547;-60
2023/05/17 08:24:06;;;;;;;9.30;2.50;;;;;;;;;;5030455;28;20182;-60
2023/05/17 08:26:33;;;;;;;7.73;2.70;;;;;;;;;;5030874;28;20201;-60
2023/05/17 08:29:01;;;;;;;8.40;2.97;;;;;;;;;;5030558;28;20734;-60
2023/05/17 08:31:28;;;;;;;7.33;2.97;;;;;;;;;;5030763;28;20227;-60
2023/05/17 08:33:55;;;;;;;9.20;2.77;;;;;;;;;;5030581;28;20219;-60
2023/05/17 08:36:21;;;;;;;12.30;2.67;;;;;;;;;;5030921;28;20204;-59
2023/05/17 08:38:48;;;;;;;9.07;2.73;;;;;;;;;;5030301;28;20195;-61
2023/05/17 08:41:15;;;;;;;9.87;2.63;;;;;;;;;;5030384;28;20574;-59
2023/05/17 08:43:43;;;;;;;11.83;2.73;;;;;;;;;;5030596;28;20237;-59
2023/05/17 08:46:10;;;;;;;9.93;2.40;;;;;;;;;;5013547;28;20199;-59
2023/05/17 08:48:40;;;;;;;9.40;2.73;;;;;;;;;;5030465;28;20199;-60
2023/05/17 08:51:10;;;;;;;9.03;2.67;;;;;;;;;;5012819;28;20270;-60
2023/05/17 08:53:37;;;;;;;7.03;2.77;;;;;;;;;;5030242;28;20298;-60
2023/05/17 08:56:05;;;;;;;10.53;2.50;;;;;;;;;;5030108;28;20195;-59
2023/05/17 08:58:33;;;;;;;8.07;2.30;;;;;;;;;;5030598;28;20608;-59
2023/05/17 09:01:20;;;;;;;10.40;2.77;;;;;;;;;;5030561;28;20214;-59
2023/05/17 09:03:49;;;;;;;12.23;2.50;;;;;;;;;;5030342;28;20176;-59
2023/05/17 09:06:17;;;;;;;5.43;1.83;;;;;;;;;;5030103;28;20199;-60
2023/05/17 09:08:44;;;;;;;9.67;2.60;;;;;;;;;;5012210;28;20191;-60
2023/05/17 09:11:10;;;;;;;12.93;2.33;;;;;;;;;;5029412;28;20380;-60
2023/05/17 09:13:37;;;;;;;7.13;2.60;;;;;;;;;;5030029;28;20681;-60
2023/05/17 09:16:06;;;;;;;9.53;2.30;;;;;;;;;;5030157;28;20203;-60
2023/05/17 09:18:33;;;;;;;10.17;1.90;;;;;;;;;;5012347;28;20654;-60
2023/05/17 09:21:01;;;;;;;9.30;2.40;;;;;;;;;;5029647;28;20223;-60
2023/05/17 09:23:29;;;;;;;7.40;2.20;;;;;;;;;;5029393;28;20195;-60
2023/05/17 09:25:55;;;;;;;6.40;1.90;;;;;;;;;;5012147;28;20227;-60
2023/05/17 09:28:22;;;;;;;7.47;1.80;;;;;;;;;;5027081;28;20238;-60
2023/05/17 09:30:49;;;;;;;8.60;2.40;;;;;;;;;;5029564;28;20187;-60
2023/05/17 09:33:16;;;;;;;8.53;1.80;;;;;;;;;;5029815;28;20547;-60
2023/05/17 09:35:44;;;;;;;8.03;2.17;;;;;;;;;;5012080;28;20681;-60
2023/05/17 09:38:11;;;;;;;7.73;1.80;;;;;;;;;;5029163;28;20707;-60
2023/05/17 09:40:41;;;;;;;5.20;1.50;;;;;;;;;;5029948;28;20649;-61
2023/05/17 09:43:08;;;;;;;9.07;2.03;;;;;;;;;;5029523;28;20226;-60
2023/05/17 09:45:35;;;;;;;6.73;1.27;;;;;;;;;;5029461;28;20287;-60
2023/05/17 09:48:15;;;;;;;11.57;2.30;;;;;;;;;;5029321;28;20286;-60
2023/05/17 09:50:42;;;;;;;6.17;1.60;;;;;;;;;;5029511;28;20666;-60
2023/05/17 09:53:25;;;;;;;9.03;1.57;;;;;;;;;;5029165;28;20199;-61
2023/05/17 09:55:52;;;;;;;7.13;1.67;;;;;;;;;;5029328;28;20286;-61
2023/05/17 09:58:20;;;;;;;10.50;1.70;;;;;;;;;;5029488;28;20199;-60
2023/05/17 10:00:52;;;;;;;7.63;1.27;;;;;;;;;;5029110;28;20279;-60
2023/05/17 10:03:19;;;;;;;6.87;1.70;;;;;;;;;;5029259;28;20604;-60
2023/05/17 10:05:48;;;;;;;5.97;1.37;;;;;;;;;;5028951;28;21027;-60
2023/05/17 10:08:15;;;;;;;6.90;1.67;;;;;;;;;;5011612;28;20220;-60
2023/05/17 10:10:42;;;;;;;6.47;1.70;;;;;;;;;;5011815;28;20187;-61
2023/05/17 10:13:09;;;;;;;6.03;1.50;;;;;;;;;;5011876;28;20202;-61
2023/05/17 10:15:37;;;;;;;6.77;1.70;;;;;;;;;;5024787;28;20195;-60
2023/05/17 10:18:05;;;;;;;6.53;1.40;;;;;;;;;;4992221;28;20188;-60
2023/05/17 10:20:32;;;;;;;7.87;1.53;;;;;;;;;;4992230;28;20211;-60
2023/05/17 10:23:02;;;;;;;4.23;1.33;;;;;;;;;;5010473;28;20280;-60
2023/05/17 10:25:29;;;;;;;6.00;1.60;;;;;;;;;;4996430;28;20220;-60
2023/05/17 10:27:56;;;;;;;7.33;1.40;;;;;;;;;;5013216;28;20200;-60
2023/05/17 10:30:25;;;;;;;9.27;1.73;;;;;;;;;;5013257;28;20199;-61
2023/05/17 10:32:53;;;;;;;7.00;1.47;;;;;;;;;;5013090;28;20194;-60
2023/05/17 10:35:20;;;;;;;8.23;1.60;;;;;;;;;;5013360;28;20192;-60
2023/05/17 10:37:46;;;;;;;10.10;1.97;;;;;;;;;;5012283;28;20206;-61
2023/05/17 10:40:13;;;;;;;5.67;1.70;;;;;;;;;;4995669;28;20211;-61
2023/05/17 10:42:41;;;;;;;7.93;1.73;;;;;;;;;;5013154;28;20192;-60
2023/05/17 10:45:08;;;;;;;5.13;1.50;;;;;;;;;;4995354;28;20238;-60
2023/05/17 10:47:40;;;;;;;6.50;1.70;;;;;;;;;;4995723;28;20196;-61
2023/05/17 10:50:11;;;;;;;6.13;1.47;;;;;;;;;;4995578;28;20196;-60
2023/05/17 10:52:39;;;;;;;6.07;1.37;;;;;;;;;;5012532;28;20207;-61
2023/05/17 10:55:06;;;;;;;8.27;1.47;;;;;;;;;;4995573;28;20254;-60
2023/05/17 10:57:34;;;;;;;6.90;1.60;;;;;;;;;;5012876;28;20227;-61
2023/05/17 11:00:19;;;;;;;6.77;1.70;;;;;;;;;;5012665;28;20262;-60
2023/05/17 11:02:47;;;;;;;4.70;1.60;;;;;;;;;;5012390;28;20889;-61
2023/05/17 11:05:24;;;;;;;6.20;1.43;;;;;;;;;;5012801;28;20253;-60
2023/05/17 11:07:51;;;;;;;6.87;1.60;;;;;;;;;;5012238;28;20234;-60
2023/05/17 11:10:17;;;;;;;6.90;1.53;;;;;;;;;;4995370;28;20188;-60
2023/05/17 11:12:45;;;;;;;8.37;1.77;;;;;;;;;;5012283;28;20271;-59
2023/05/17 11:15:13;;;;;;;6.23;1.80;;;;;;;;;;5013282;28;20176;-60
2023/05/17 11:17:42;;;;;;;7.73;1.67;;;;;;;;;;5032164;28;20613;-60
2023/05/17 11:20:15;;;;;;;7.43;1.43;;;;;;;;;;5031758;28;20262;-59
2023/05/17 11:23:06;;;;;;;7.97;1.63;;;;;;;;;;5032017;28;20261;-59
2023/05/17 11:25:34;;;;;;;7.97;1.87;;;;;;;;;;5032013;28;20223;-59
2023/05/17 11:28:08;;;;;;;7.77;2.00;;;;;;;;;;5031847;28;20219;-60
2023/05/17 11:30:38;;;;;;;8.43;1.70;;;;;;;;;;5031920;28;20191;-59
2023/05/17 11:33:05;;;;;;;7.37;2.33;;;;;;;;;;5031818;28;20241;-59
2023/05/17 11:35:46;;;;;;;8.20;1.90;;;;;;;;;;5015533;28;20226;-59
2023/05/17 11:38:17;;;;;;;6.33;1.63;;;;;;;;;;5031741;28;20179;-59
2023/05/17 11:40:45;;;;;;;7.43;1.83;;;;;;;;;;5031544;28;20679;-59
2023/05/17 11:43:18;;;;;;;7.80;1.93;;;;;;;;;;5032323;28;20190;-60
2023/05/17 11:45:49;;;;;;;10.53;2.00;;;;;;;;;;5031524;28;20187;-60
2023/05/17 11:48:19;;;;;;;10.13;2.47;;;;;;;;;;5014828;28;20191;-60
2023/05/17 11:50:46;;;;;;;11.27;2.10;;;;;;;;;;5031138;28;20192;-60
2023/05/17 11:53:13;;;;;;;10.63;2.23;;;;;;;;;;5031528;28;20295;-60
2023/05/17 11:55:44;;;;;;;9.17;2.00;;;;;;;;;;5031499;28;20555;-60
2023/05/17 11:58:13;;;;;;;9.40;1.77;;;;;;;;;;5014451;28;20194;-60
2023/05/17 12:00:40;;;;;;;9.43;1.90;;;;;;;;;;5013516;28;20239;-60
2023/05/17 12:03:17;;;;;;;7.80;1.90;;;;;;;;;;5031246;28;20734;-60
2023/05/17 12:05:45;;;;;;;11.97;2.40;;;;;;;;;;5031286;28;20218;-60
2023/05/17 12:08:11;;;;;;;8.53;2.53;;;;;;;;;;5031136;28;20222;-59
2023/05/17 12:10:42;;;;;;;10.83;2.50;;;;;;;;;;5031217;28;20171;-59
2023/05/17 12:13:09;;;;;;;9.93;2.37;;;;;;;;;;5031480;28;20214;-59
2023/05/17 12:15:36;;;;;;;9.20;2.43;;;;;;;;;;5026617;28;20191;-61
2023/05/17 12:18:03;;;;;;;11.03;2.43;;;;;;;;;;5011237;28;20189;-60
2023/05/17 12:20:31;;;;;;;8.30;2.13;;;;;;;;;;4993193;28;20684;-60
2023/05/17 12:22:58;;;;;;;11.17;2.40;;;;;;;;;;5011260;28;20192;-60
2023/05/17 12:25:26;;;;;;;7.53;2.23;;;;;;;;;;5011042;28;20226;-61
2023/05/17 12:27:55;;;;;;;8.23;2.00;;;;;;;;;;5011118;28;20668;-59
2023/05/17 12:30:22;;;;;;;6.27;1.67;;;;;;;;;;4993610;28;20211;-61
2023/05/17 12:32:49;;;;;;;12.93;2.43;;;;;;;;;;5010821;28;20211;-60
2023/05/17 12:35:17;;;;;;;9.33;2.30;;;;;;;;;;4993879;28;20640;-60
2023/05/17 12:37:44;;;;;;;6.97;1.77;;;;;;;;;;4987545;28;20189;-60
2023/05/17 12:40:10;;;;;;;5.83;1.73;;;;;;;;;;4993197;28;20788;-60
2023/05/17 12:42:39;;;;;;;6.23;1.83;;;;;;;;;;4996419;28;20285;-59
2023/05/17 12:45:06;;;;;;;7.17;1.97;;;;;;;;;;4994072;28;20614;-59
2023/05/17 12:47:33;;;;;;;12.03;2.03;;;;;;;;;;4997987;28;20213;-60
2023/05/17 12:50:02;;;;;;;7.87;1.80;;;;;;;;;;5012535;28;20228;-60
2023/05/17 12:52:32;;;;;;;8.63;1.90;;;;;;;;;;5011907;28;20196;-60
2023/05/17 12:54:59;;;;;;;9.20;1.63;;;;;;;;;;5003505;28;20197;-59
2023/05/17 12:57:25;;;;;;;7.83;1.70;;;;;;;;;;4973674;28;20199;-60
2023/05/17 12:59:54;;;;;;;8.57;1.50;;;;;;;;;;5012149;28;20227;-59
2023/05/17 13:02:22;;;;;;;6.43;1.60;;;;;;;;;;5011868;28;20208;-59
2023/05/17 13:04:49;;;;;;;8.53;2.10;;;;;;;;;;5011718;28;20594;-60
2023/05/17 13:07:22;;;;;;;5.28;1.55;;;;;;;;;;4890295;27;6156759;-61
2023/05/17 13:09:50;;;;;;;7.33;1.70;;;;;;;;;;5088541;28;20194;-60
2023/05/17 13:12:17;;;;;;;6.83;1.93;;;;;;;;;;5088746;28;20596;-60
2023/05/17 13:14:45;;;;;;;4.00;1.40;;;;;;;;;;5088846;28;20229;-60
2023/05/17 13:17:25;;;;;;;6.90;1.83;;;;;;;;;;5086641;28;20197;-60
2023/05/17 13:19:56;;;;;;;5.47;1.40;;;;;;;;;;5088042;28;20739;-60
2023/05/17 13:22:24;;;;;;;6.27;1.60;;;;;;;;;;5088271;28;20192;-61
2023/05/17 13:24:51;;;;;;;7.57;1.83;;;;;;;;;;5088550;28;20201;-60
2023/05/17 13:27:18;;;;;;;5.50;1.60;;;;;;;;;;5088326;28;20300;-60
2023/05/17 13:29:44;;;;;;;5.53;1.43;;;;;;;;;;5088084;28;20691;-61
2023/05/17 13:32:12;;;;;;;6.30;1.40;;;;;;;;;;5086954;28;20702;-60
2023/05/17 13:34:39;;;;;;;5.73;1.27;;;;;;;;;;5087025;28;20587;-60
2023/05/17 13:37:06;;;;;;;6.30;1.60;;;;;;;;;;5087985;28;20542;-60
2023/05/17 13:39:38;;;;;;;7.23;1.40;;;;;;;;;;5086957;28;20725;-60
2023/05/17 13:42:05;;;;;;;9.00;1.40;;;;;;;;;;5087469;28;20230;-60
2023/05/17 13:44:32;;;;;;;3.67;1.03;;;;;;;;;;5086223;28;20251;-60
2023/05/17 13:46:59;;;;;;;5.00;1.10;;;;;;;;;;5086282;28;20692;-60
2023/05/17 13:49:27;;;;;;;6.10;1.10;;;;;;;;;;5087853;28;20194;-61
2023/05/17 13:51:54;;;;;;;4.97;1.37;;;;;;;;;;5087265;28;20196;-60
2023/05/17 13:54:21;;;;;;;4.77;1.40;;;;;;;;;;5087100;28;20200;-60
2023/05/17 13:56:50;;;;;;;6.53;1.40;;;;;;;;;;5087430;28;20276;-60
2023/05/17 13:59:17;;;;;;;7.83;1.37;;;;;;;;;;5087694;28;20680;-60
2023/05/17 14:01:44;;;;;;;5.40;1.90;;;;;;;;;;5087873;28;20185;-61
2023/05/17 14:04:11;;;;;;;6.83;1.37;;;;;;;;;;5086293;28;20247;-60
2023/05/17 14:06:40;;;;;;;6.53;1.53;;;;;;;;;;5100810;28;20228;-60
2023/05/17 14:09:06;;;;;;;7.83;1.67;;;;;;;;;;5107306;28;20594;-61
2023/05/17 14:11:33;;;;;;;4.87;1.40;;;;;;;;;;5089657;28;20188;-60
2023/05/17 14:14:00;;;;;;;7.97;1.53;;;;;;;;;;5108067;28;20185;-60
2023/05/17 14:16:27;;;;;;;5.13;1.57;;;;;;;;;;5107434;28;20648;-60
2023/05/17 14:18:53;;;;;;;9.13;1.63;;;;;;;;;;5093849;28;20231;-60
2023/05/17 14:21:21;;;;;;;8.43;1.27;;;;;;;;;;5075649;28;20664;-61
2023/05/17 14:23:48;;;;;;;7.40;1.10;;;;;;;;;;5093897;28;20669;-60
2023/05/17 14:26:15;;;;;;;7.30;1.30;;;;;;;;;;5094226;28;20330;-60
2023/05/17 14:28:41;;;;;;;8.37;1.77;;;;;;;;;;5094061;28;20645;-60
2023/05/17 14:31:08;;;;;;;7.57;1.73;;;;;;;;;;5093320;28;20239;-60
2023/05/17 14:33:35;;;;;;;9.50;1.87;;;;;;;;;;5093250;28;20190;-60
2023/05/17 14:36:03;;;;;;;7.80;2.20;;;;;;;;;;5075936;28;20212;-60
2023/05/17 14:38:29;;;;;;;7.00;1.80;;;;;;;;;;5093568;28;20251;-60
2023/05/17 14:40:57;;;;;;;9.67;2.00;;;;;;;;;;5093410;28;20205;-59
2023/05/17 14:43:23;;;;;;;7.23;2.13;;;;;;;;;;5092897;28;20215;-60
2023/05/17 14:45:50;;;;;;;6.73;1.97;;;;;;;;;;5092875;28;20233;-60
2023/05/17 14:48:17;;;;;;;7.40;1.20;;;;;;;;;;5093256;28;20198;-60
2023/05/17 14:50:44;;;;;;;6.20;1.70;;;;;;;;;;5093747;28;20185;-60
2023/05/17 14:53:11;;;;;;;8.90;1.63;;;;;;;;;;5093559;28;20219;-60
2023/05/17 14:55:38;;;;;;;9.97;2.63;;;;;;;;;;5093231;28;20198;-60
2023/05/17 14:58:05;;;;;;;6.83;1.20;;;;;;;;;;5092891;28;20265;-59
2023/05/17 15:00:33;;;;;;;9.17;1.83;;;;;;;;;;5092878;28;20201;-60
2023/05/17 15:03:00;;;;;;;5.20;1.77;;;;;;;;;;5091767;28;20195;-60
2023/05/17 15:05:27;;;;;;;10.07;1.53;;;;;;;;;;5090895;28;20218;-61
2023/05/17 15:07:54;;;;;;;4.03;1.23;;;;;;;;;;5091125;28;20242;-61
2023/05/17 15:10:21;;;;;;;6.27;1.40;;;;;;;;;;5091921;28;20190;-60
2023/05/17 15:12:48;;;;;;;3.73;1.27;;;;;;;;;;5091008;28;20192;-61
2023/05/17 15:15:15;;;;;;;6.80;1.80;;;;;;;;;;5091253;28;20607;-60